sensor_id;sensor_type;location;lat;lon;timestamp;temperature;humidity
25933;DHT22;13731;51.166;4.474;2022-09-30T00:01:43;7.80;85.40
25933;DHT22;13731;51.166;4.474;2022-09-30T00:04:13;7.80;91.80
25933;DHT22;13731;51.166;4.474;2022-09-30T00:06:39;7.70;99.50
25933;DHT22;13731;51.166;4.474;2022-09-30T00:09:05;7.70;99.90
25933;DHT22;13731;51.166;4.474;2022-09-30T00:11:33;7.70;97.20
25933;DHT22;13731;51.166;4.474;2022-09-30T00:14:01;7.70;93.80
25933;DHT22;13731;51.166;4.474;2022-09-30T00:16:32;7.60;99.90
25933;DHT22;13731;51.166;4.474;2022-09-30T00:18:59;7.50;99.90
25933;DHT22;13731;51.166;4.474;2022-09-30T00:21:26;7.50;99.90
25933;DHT22;13731;51.166;4.474;2022-09-30T00:23:53;7.50;99.90
25933;DHT22;13731;51.166;4.474;2022-09-30T00:26:21;7.50;99.90
25933;DHT22;13731;51.166;4.474;2022-09-30T00:28:55;7.40;99.90
25933;DHT22;13731;51.166;4.474;2022-09-30T00:31:22;7.30;99.90
25933;DHT22;13731;51.166;4.474;2022-09-30T00:33:49;7.30;99.90
25933;DHT22;13731;51.166;4.474;2022-09-30T00:36:53;7.30;99.90
25933;DHT22;13731;51.166;4.474;2022-09-30T00:39:25;7.30;99.90
25933;DHT22;13731;51.166;4.474;2022-09-30T00:41:55;7.20;99.90
25933;DHT22;13731;51.166;4.474;2022-09-30T00:44:55;7.40;99.90
25933;DHT22;13731;51.166;4.474;2022-09-30T00:50:25;7.30;98.30
25933;DHT22;13731;51.166;4.474;2022-09-30T00:53:28;7.40;94.70
25933;DHT22;13731;51.166;4.474;2022-09-30T00:55:58;7.40;73.30
25933;DHT22;13731;51.166;4.474;2022-09-30T00:58:39;7.30;71.10
25933;DHT22;13731;51.166;4.474;2022-09-30T01:01:06;7.30;92.50
25933;DHT22;13731;51.166;4.474;2022-09-30T01:03:40;7.20;94.10
25933;DHT22;13731;51.166;4.474;2022-09-30T01:06:08;7.20;99.90
25933;DHT22;13731;51.166;4.474;2022-09-30T01:08:36;7.30;99.90
25933;DHT22;13731;51.166;4.474;2022-09-30T01:11:03;7.10;99.90
25933;DHT22;13731;51.166;4.474;2022-09-30T01:13:31;7.00;99.90
25933;DHT22;13731;51.166;4.474;2022-09-30T01:30:35;7.10;99.90
25933;DHT22;13731;51.166;4.474;2022-09-30T01:33:22;7.00;99.90
25933;DHT22;13731;51.166;4.474;2022-09-30T01:42:02;7.00;99.90
25933;DHT22;13731;51.166;4.474;2022-09-30T01:45:07;7.00;99.90
25933;DHT22;13731;51.166;4.474;2022-09-30T01:47:56;6.90;99.90
25933;DHT22;13731;51.166;4.474;2022-09-30T01:54:16;7.00;99.90
25933;DHT22;13731;51.166;4.474;2022-09-30T01:56:45;7.00;99.90
25933;DHT22;13731;51.166;4.474;2022-09-30T01:59:46;7.00;99.90
25933;DHT22;13731;51.166;4.474;2022-09-30T02:02:22;7.00;99.90
25933;DHT22;13731;51.166;4.474;2022-09-30T02:05:06;6.90;99.90
25933;DHT22;13731;51.166;4.474;2022-09-30T02:07:35;6.90;99.90
25933;DHT22;13731;51.166;4.474;2022-09-30T02:10:11;6.90;99.90
25933;DHT22;13731;51.166;4.474;2022-09-30T02:13:19;6.90;99.90
25933;DHT22;13731;51.166;4.474;2022-09-30T02:15:42;6.90;99.90
25933;DHT22;13731;51.166;4.474;2022-09-30T02:18:37;6.90;99.90
25933;DHT22;13731;51.166;4.474;2022-09-30T02:21:06;6.90;99.90
25933;DHT22;13731;51.166;4.474;2022-09-30T02:23:35;6.90;99.90
25933;DHT22;13731;51.166;4.474;2022-09-30T02:26:16;6.80;99.90
25933;DHT22;13731;51.166;4.474;2022-09-30T02:28:51;6.80;99.90
25933;DHT22;13731;51.166;4.474;2022-09-30T02:31:21;6.80;99.90
25933;DHT22;13731;51.166;4.474;2022-09-30T02:34:11;6.80;99.90
25933;DHT22;13731;51.166;4.474;2022-09-30T02:39:40;6.80;99.90
25933;DHT22;13731;51.166;4.474;2022-09-30T02:42:19;6.80;99.90
25933;DHT22;13731;51.166;4.474;2022-09-30T02:44:50;6.80;99.90
25933;DHT22;13731;51.166;4.474;2022-09-30T02:50:14;6.70;99.90
25933;DHT22;13731;51.166;4.474;2022-09-30T02:59:06;6.80;99.90
25933;DHT22;13731;51.166;4.474;2022-09-30T03:01:31;6.70;99.90
25933;DHT22;13731;51.166;4.474;2022-09-30T03:04:03;6.70;99.90
25933;DHT22;13731;51.166;4.474;2022-09-30T03:06:31;6.80;99.90
25933;DHT22;13731;51.166;4.474;2022-09-30T03:08:57;6.70;99.90
25933;DHT22;13731;51.166;4.474;2022-09-30T03:11:25;6.70;99.90
25933;DHT22;13731;51.166;4.474;2022-09-30T03:16:44;6.60;99.90
25933;DHT22;13731;51.166;4.474;2022-09-30T03:30:15;6.50;99.90
25933;DHT22;13731;51.166;4.474;2022-09-30T03:38:33;6.60;99.90
25933;DHT22;13731;51.166;4.474;2022-09-30T03:44:10;6.50;99.90
25933;DHT22;13731;51.166;4.474;2022-09-30T03:46:40;6.50;99.90
25933;DHT22;13731;51.166;4.474;2022-09-30T03:49:10;6.60;99.90
25933;DHT22;13731;51.166;4.474;2022-09-30T03:51:39;6.70;99.90
25933;DHT22;13731;51.166;4.474;2022-09-30T03:54:08;6.70;99.90
25933;DHT22;13731;51.166;4.474;2022-09-30T03:56:34;6.70;99.90
25933;DHT22;13731;51.166;4.474;2022-09-30T03:59:03;6.70;99.90
25933;DHT22;13731;51.166;4.474;2022-09-30T04:01:29;6.70;99.90
25933;DHT22;13731;51.166;4.474;2022-09-30T04:03:55;6.80;99.90
25933;DHT22;13731;51.166;4.474;2022-09-30T04:06:22;6.70;99.90
25933;DHT22;13731;51.166;4.474;2022-09-30T04:08:49;6.70;99.90
25933;DHT22;13731;51.166;4.474;2022-09-30T04:11:15;6.70;99.90
25933;DHT22;13731;51.166;4.474;2022-09-30T04:13:41;6.70;99.90
25933;DHT22;13731;51.166;4.474;2022-09-30T04:16:07;6.60;99.90
25933;DHT22;13731;51.166;4.474;2022-09-30T04:18:37;6.60;99.90
25933;DHT22;13731;51.166;4.474;2022-09-30T04:21:07;6.60;99.90
25933;DHT22;13731;51.166;4.474;2022-09-30T04:23:37;6.60;99.90
25933;DHT22;13731;51.166;4.474;2022-09-30T04:26:05;6.70;99.90
25933;DHT22;13731;51.166;4.474;2022-09-30T04:28:33;6.60;99.90
25933;DHT22;13731;51.166;4.474;2022-09-30T04:31:03;6.60;99.90
25933;DHT22;13731;51.166;4.474;2022-09-30T04:33:32;6.60;99.90
25933;DHT22;13731;51.166;4.474;2022-09-30T04:35:59;6.60;99.90
25933;DHT22;13731;51.166;4.474;2022-09-30T04:38:25;6.60;99.90
25933;DHT22;13731;51.166;4.474;2022-09-30T04:40:52;6.70;99.90
25933;DHT22;13731;51.166;4.474;2022-09-30T04:43:19;6.60;99.90
25933;DHT22;13731;51.166;4.474;2022-09-30T04:45:48;6.50;99.90
25933;DHT22;13731;51.166;4.474;2022-09-30T04:48:15;6.50;99.90
25933;DHT22;13731;51.166;4.474;2022-09-30T04:50:41;6.40;99.90
25933;DHT22;13731;51.166;4.474;2022-09-30T04:53:08;6.40;99.90
25933;DHT22;13731;51.166;4.474;2022-09-30T04:55:34;6.40;99.90
25933;DHT22;13731;51.166;4.474;2022-09-30T04:58:00;6.40;99.90
25933;DHT22;13731;51.166;4.474;2022-09-30T05:00:26;6.40;99.90
25933;DHT22;13731;51.166;4.474;2022-09-30T05:02:52;6.40;99.90
25933;DHT22;13731;51.166;4.474;2022-09-30T05:05:17;6.40;99.90
25933;DHT22;13731;51.166;4.474;2022-09-30T05:07:44;6.30;99.90
25933;DHT22;13731;51.166;4.474;2022-09-30T05:10:11;6.30;99.90
25933;DHT22;13731;51.166;4.474;2022-09-30T05:12:38;6.30;99.90
25933;DHT22;13731;51.166;4.474;2022-09-30T05:15:06;6.20;99.90
25933;DHT22;13731;51.166;4.474;2022-09-30T05:17:32;6.50;99.90
25933;DHT22;13731;51.166;4.474;2022-09-30T05:19:58;6.60;99.90
25933;DHT22;13731;51.166;4.474;2022-09-30T05:22:26;6.60;99.90
25933;DHT22;13731;51.166;4.474;2022-09-30T05:24:53;6.60;99.90
25933;DHT22;13731;51.166;4.474;2022-09-30T05:27:21;6.60;99.90
25933;DHT22;13731;51.166;4.474;2022-09-30T05:29:48;6.60;99.90
25933;DHT22;13731;51.166;4.474;2022-09-30T05:32:14;6.60;99.90
25933;DHT22;13731;51.166;4.474;2022-09-30T05:34:39;6.60;99.90
25933;DHT22;13731;51.166;4.474;2022-09-30T05:37:06;6.70;99.90
25933;DHT22;13731;51.166;4.474;2022-09-30T05:39:34;6.70;99.90
25933;DHT22;13731;51.166;4.474;2022-09-30T05:42:00;6.80;99.90
25933;DHT22;13731;51.166;4.474;2022-09-30T05:44:26;6.70;99.90
25933;DHT22;13731;51.166;4.474;2022-09-30T05:46:51;6.70;99.90
25933;DHT22;13731;51.166;4.474;2022-09-30T05:49:17;6.70;99.90
25933;DHT22;13731;51.166;4.474;2022-09-30T05:51:43;6.80;99.90
25933;DHT22;13731;51.166;4.474;2022-09-30T05:54:10;6.90;99.90
25933;DHT22;13731;51.166;4.474;2022-09-30T05:56:36;7.00;99.90
25933;DHT22;13731;51.166;4.474;2022-09-30T05:59:05;7.00;99.90
25933;DHT22;13731;51.166;4.474;2022-09-30T06:01:31;7.10;99.90
25933;DHT22;13731;51.166;4.474;2022-09-30T06:03:57;7.10;99.90
25933;DHT22;13731;51.166;4.474;2022-09-30T06:06:24;7.10;99.90
25933;DHT22;13731;51.166;4.474;2022-09-30T06:08:50;7.10;99.90
25933;DHT22;13731;51.166;4.474;2022-09-30T06:11:19;7.10;99.90
25933;DHT22;13731;51.166;4.474;2022-09-30T06:13:46;7.20;99.90
25933;DHT22;13731;51.166;4.474;2022-09-30T06:16:13;7.20;99.90
25933;DHT22;13731;51.166;4.474;2022-09-30T06:18:39;7.30;99.90
25933;DHT22;13731;51.166;4.474;2022-09-30T06:21:07;7.30;99.90
25933;DHT22;13731;51.166;4.474;2022-09-30T06:23:33;7.30;99.90
25933;DHT22;13731;51.166;4.474;2022-09-30T06:26:00;7.40;99.90
25933;DHT22;13731;51.166;4.474;2022-09-30T06:28:26;7.40;99.90
25933;DHT22;13731;51.166;4.474;2022-09-30T06:30:53;7.40;99.90
25933;DHT22;13731;51.166;4.474;2022-09-30T06:33:20;7.40;99.90
25933;DHT22;13731;51.166;4.474;2022-09-30T06:35:46;7.50;99.90
25933;DHT22;13731;51.166;4.474;2022-09-30T06:38:13;7.60;99.90
25933;DHT22;13731;51.166;4.474;2022-09-30T06:40:43;7.70;99.90
25933;DHT22;13731;51.166;4.474;2022-09-30T06:43:09;7.80;99.90
25933;DHT22;13731;51.166;4.474;2022-09-30T06:45:36;7.90;99.90
25933;DHT22;13731;51.166;4.474;2022-09-30T06:48:04;8.10;99.90
25933;DHT22;13731;51.166;4.474;2022-09-30T06:50:31;8.30;99.90
25933;DHT22;13731;51.166;4.474;2022-09-30T06:52:58;8.70;99.90
25933;DHT22;13731;51.166;4.474;2022-09-30T06:55:24;9.00;99.90
25933;DHT22;13731;51.166;4.474;2022-09-30T06:57:52;8.90;99.90
25933;DHT22;13731;51.166;4.474;2022-09-30T07:00:18;8.90;99.90
25933;DHT22;13731;51.166;4.474;2022-09-30T07:02:44;8.80;99.90
25933;DHT22;13731;51.166;4.474;2022-09-30T07:05:10;8.90;99.90
25933;DHT22;13731;51.166;4.474;2022-09-30T07:07:36;9.00;99.90
25933;DHT22;13731;51.166;4.474;2022-09-30T07:10:03;9.00;99.90
25933;DHT22;13731;51.166;4.474;2022-09-30T07:12:29;9.00;99.90
25933;DHT22;13731;51.166;4.474;2022-09-30T07:14:55;9.00;99.90
25933;DHT22;13731;51.166;4.474;2022-09-30T07:17:21;9.20;99.90
25933;DHT22;13731;51.166;4.474;2022-09-30T07:19:47;9.20;99.90
25933;DHT22;13731;51.166;4.474;2022-09-30T07:22:13;9.30;99.90
25933;DHT22;13731;51.166;4.474;2022-09-30T07:25:01;9.30;99.90
25933;DHT22;13731;51.166;4.474;2022-09-30T07:27:31;9.40;99.90
25933;DHT22;13731;51.166;4.474;2022-09-30T07:29:58;9.50;99.90
25933;DHT22;13731;51.166;4.474;2022-09-30T07:32:25;9.60;99.90
25933;DHT22;13731;51.166;4.474;2022-09-30T07:34:50;9.70;99.90
25933;DHT22;13731;51.166;4.474;2022-09-30T07:37:18;9.80;99.90
25933;DHT22;13731;51.166;4.474;2022-09-30T07:39:45;9.80;99.90
25933;DHT22;13731;51.166;4.474;2022-09-30T07:42:13;9.90;99.90
25933;DHT22;13731;51.166;4.474;2022-09-30T07:44:40;9.90;99.90
25933;DHT22;13731;51.166;4.474;2022-09-30T07:47:12;10.10;99.90
25933;DHT22;13731;51.166;4.474;2022-09-30T07:49:41;10.20;99.90
25933;DHT22;13731;51.166;4.474;2022-09-30T07:52:07;10.30;99.90
25933;DHT22;13731;51.166;4.474;2022-09-30T07:54:34;10.30;99.90
25933;DHT22;13731;51.166;4.474;2022-09-30T07:57:02;10.30;99.90
25933;DHT22;13731;51.166;4.474;2022-09-30T07:59:29;10.40;99.90
25933;DHT22;13731;51.166;4.474;2022-09-30T08:01:56;10.50;99.90
25933;DHT22;13731;51.166;4.474;2022-09-30T08:04:23;10.60;99.90
25933;DHT22;13731;51.166;4.474;2022-09-30T08:06:53;10.60;99.90
25933;DHT22;13731;51.166;4.474;2022-09-30T08:09:21;10.70;99.90
25933;DHT22;13731;51.166;4.474;2022-09-30T08:11:47;10.90;99.90
25933;DHT22;13731;51.166;4.474;2022-09-30T08:14:21;10.90;99.90
25933;DHT22;13731;51.166;4.474;2022-09-30T08:16:48;11.10;99.90
25933;DHT22;13731;51.166;4.474;2022-09-30T08:19:19;11.10;99.90
25933;DHT22;13731;51.166;4.474;2022-09-30T08:21:46;11.20;99.90
25933;DHT22;13731;51.166;4.474;2022-09-30T08:24:13;11.30;99.90
25933;DHT22;13731;51.166;4.474;2022-09-30T08:26:40;11.50;99.90
25933;DHT22;13731;51.166;4.474;2022-09-30T08:29:06;11.60;99.90
25933;DHT22;13731;51.166;4.474;2022-09-30T08:31:32;11.60;99.90
25933;DHT22;13731;51.166;4.474;2022-09-30T08:33:59;11.70;99.90
25933;DHT22;13731;51.166;4.474;2022-09-30T08:36:26;11.80;99.90
25933;DHT22;13731;51.166;4.474;2022-09-30T08:38:52;11.90;99.90
25933;DHT22;13731;51.166;4.474;2022-09-30T08:47:12;12.10;99.90
25933;DHT22;13731;51.166;4.474;2022-09-30T08:52:46;12.30;99.90
25933;DHT22;13731;51.166;4.474;2022-09-30T08:55:25;12.20;99.90
25933;DHT22;13731;51.166;4.474;2022-09-30T08:57:55;12.30;99.90
25933;DHT22;13731;51.166;4.474;2022-09-30T09:00:22;12.30;99.90
25933;DHT22;13731;51.166;4.474;2022-09-30T09:02:52;12.50;99.90
25933;DHT22;13731;51.166;4.474;2022-09-30T09:05:40;12.60;99.90
25933;DHT22;13731;51.166;4.474;2022-09-30T09:19:06;13.50;99.90
25933;DHT22;13731;51.166;4.474;2022-09-30T09:24:18;13.50;99.90
25933;DHT22;13731;51.166;4.474;2022-09-30T09:26:46;13.60;99.90
25933;DHT22;13731;51.166;4.474;2022-09-30T09:31:46;13.90;99.90
25933;DHT22;13731;51.166;4.474;2022-09-30T09:34:13;14.00;99.90
25933;DHT22;13731;51.166;4.474;2022-09-30T09:36:57;14.20;99.90
25933;DHT22;13731;51.166;4.474;2022-09-30T09:45:01;14.20;1.00
25933;DHT22;13731;51.166;4.474;2022-09-30T09:47:28;14.30;1.00
25933;DHT22;13731;51.166;4.474;2022-09-30T09:50:02;14.50;99.90
25933;DHT22;13731;51.166;4.474;2022-09-30T09:55:05;15.10;1.00
25933;DHT22;13731;51.166;4.474;2022-09-30T09:57:31;15.10;99.90
25933;DHT22;13731;51.166;4.474;2022-09-30T09:59:58;15.10;1.00
25933;DHT22;13731;51.166;4.474;2022-09-30T10:02:30;15.10;99.90
25933;DHT22;13731;51.166;4.474;2022-09-30T10:04:56;15.50;99.90
25933;DHT22;13731;51.166;4.474;2022-09-30T10:07:30;17.30;99.90
25933;DHT22;13731;51.166;4.474;2022-09-30T10:10:17;18.30;99.90
25933;DHT22;13731;51.166;4.474;2022-09-30T10:12:44;19.40;99.90
25933;DHT22;13731;51.166;4.474;2022-09-30T10:15:22;20.10;1.00
25933;DHT22;13731;51.166;4.474;2022-09-30T10:17:52;20.90;99.90
25933;DHT22;13731;51.166;4.474;2022-09-30T10:20:22;21.40;4.90
25933;DHT22;13731;51.166;4.474;2022-09-30T10:22:49;21.80;1.00
25933;DHT22;13731;51.166;4.474;2022-09-30T10:27:51;21.80;99.90
25933;DHT22;13731;51.166;4.474;2022-09-30T10:33:30;22.40;99.90
25933;DHT22;13731;51.166;4.474;2022-09-30T10:36:07;22.10;99.90
25933;DHT22;13731;51.166;4.474;2022-09-30T10:38:35;22.10;99.90
25933;DHT22;13731;51.166;4.474;2022-09-30T10:41:03;22.80;99.90
25933;DHT22;13731;51.166;4.474;2022-09-30T10:43:42;22.90;99.90
25933;DHT22;13731;51.166;4.474;2022-09-30T10:46:09;22.20;99.90
25933;DHT22;13731;51.166;4.474;2022-09-30T10:48:37;22.30;99.90
25933;DHT22;13731;51.166;4.474;2022-09-30T10:51:05;21.80;99.90
25933;DHT22;13731;51.166;4.474;2022-09-30T10:53:33;21.50;99.90
25933;DHT22;13731;51.166;4.474;2022-09-30T10:56:00;22.50;99.90
25933;DHT22;13731;51.166;4.474;2022-09-30T10:58:47;22.40;99.90
25933;DHT22;13731;51.166;4.474;2022-09-30T11:01:37;22.50;99.90
25933;DHT22;13731;51.166;4.474;2022-09-30T11:04:26;22.40;99.90
25933;DHT22;13731;51.166;4.474;2022-09-30T11:06:58;22.50;99.90
25933;DHT22;13731;51.166;4.474;2022-09-30T11:12:01;23.60;99.90
25933;DHT22;13731;51.166;4.474;2022-09-30T11:14:43;24.00;80.10
25933;DHT22;13731;51.166;4.474;2022-09-30T11:20:14;24.50;52.70
25933;DHT22;13731;51.166;4.474;2022-09-30T11:22:51;24.40;37.30
25933;DHT22;13731;51.166;4.474;2022-09-30T11:36:38;23.60;33.40
25933;DHT22;13731;51.166;4.474;2022-09-30T11:42:06;23.20;44.10
25933;DHT22;13731;51.166;4.474;2022-09-30T11:44:37;23.20;23.70
25933;DHT22;13731;51.166;4.474;2022-09-30T11:47:24;23.70;26.50
25933;DHT22;13731;51.166;4.474;2022-09-30T11:58:13;24.00;1.00
25933;DHT22;13731;51.166;4.474;2022-09-30T12:00:45;24.30;1.00
25933;DHT22;13731;51.166;4.474;2022-09-30T12:03:21;24.30;1.00
25933;DHT22;13731;51.166;4.474;2022-09-30T12:06:15;23.40;1.00
25933;DHT22;13731;51.166;4.474;2022-09-30T12:08:48;22.70;1.00
25933;DHT22;13731;51.166;4.474;2022-09-30T12:11:22;22.80;1.00
25933;DHT22;13731;51.166;4.474;2022-09-30T12:13:53;22.30;11.70
25933;DHT22;13731;51.166;4.474;2022-09-30T12:16:23;21.20;50.60
25933;DHT22;13731;51.166;4.474;2022-09-30T12:19:02;20.30;99.90
25933;DHT22;13731;51.166;4.474;2022-09-30T12:21:39;19.60;99.90
25933;DHT22;13731;51.166;4.474;2022-09-30T12:26:36;19.30;1.00
25933;DHT22;13731;51.166;4.474;2022-09-30T12:49:31;20.70;1.00
25933;DHT22;13731;51.166;4.474;2022-09-30T12:52:02;20.60;99.90
25933;DHT22;13731;51.166;4.474;2022-09-30T12:54:35;20.50;99.90
25933;DHT22;13731;51.166;4.474;2022-09-30T12:57:05;21.90;99.90
25933;DHT22;13731;51.166;4.474;2022-09-30T12:59:50;23.00;99.90
25933;DHT22;13731;51.166;4.474;2022-09-30T13:06:16;23.90;23.10
25933;DHT22;13731;51.166;4.474;2022-09-30T13:10:45;23.80;1.00
25933;DHT22;13731;51.166;4.474;2022-09-30T13:15:42;22.00;10.40
25933;DHT22;13731;51.166;4.474;2022-09-30T13:20:55;21.80;51.40
25933;DHT22;13731;51.166;4.474;2022-09-30T13:23:38;22.20;38.10
25933;DHT22;13731;51.166;4.474;2022-09-30T13:26:41;22.10;38.50
25933;DHT22;13731;51.166;4.474;2022-09-30T13:34:29;22.10;22.90
25933;DHT22;13731;51.166;4.474;2022-09-30T13:36:58;21.90;50.10
25933;DHT22;13731;51.166;4.474;2022-09-30T13:45:02;22.90;61.40
25933;DHT22;13731;51.166;4.474;2022-09-30T13:47:38;22.70;29.60
25933;DHT22;13731;51.166;4.474;2022-09-30T13:50:34;21.80;41.70
25933;DHT22;13731;51.166;4.474;2022-09-30T13:53:06;21.60;85.50
25933;DHT22;13731;51.166;4.474;2022-09-30T13:55:46;22.40;70.20
25933;DHT22;13731;51.166;4.474;2022-09-30T14:09:00;23.00;27.60
25933;DHT22;13731;51.166;4.474;2022-09-30T14:11:58;23.20;3.20
25933;DHT22;13731;51.166;4.474;2022-09-30T14:20:33;22.20;79.60
25933;DHT22;13731;51.166;4.474;2022-09-30T14:23:02;22.00;73.50
25933;DHT22;13731;51.166;4.474;2022-09-30T14:25:37;21.40;82.90
25933;DHT22;13731;51.166;4.474;2022-09-30T14:28:18;20.90;99.90
25933;DHT22;13731;51.166;4.474;2022-09-30T14:30:48;20.90;99.90
25933;DHT22;13731;51.166;4.474;2022-09-30T14:33:33;21.00;99.90
25933;DHT22;13731;51.166;4.474;2022-09-30T14:36:05;20.80;99.90
25933;DHT22;13731;51.166;4.474;2022-09-30T14:38:35;21.20;97.30
25933;DHT22;13731;51.166;4.474;2022-09-30T14:41:05;21.80;67.50
25933;DHT22;13731;51.166;4.474;2022-09-30T14:43:39;22.20;38.00
25933;DHT22;13731;51.166;4.474;2022-09-30T14:48:44;21.70;76.90
25933;DHT22;13731;51.166;4.474;2022-09-30T14:51:15;21.60;83.70
25933;DHT22;13731;51.166;4.474;2022-09-30T14:53:56;20.50;99.90
25933;DHT22;13731;51.166;4.474;2022-09-30T14:56:34;20.80;99.90
25933;DHT22;13731;51.166;4.474;2022-09-30T14:59:18;20.40;99.90
25933;DHT22;13731;51.166;4.474;2022-09-30T15:01:46;20.30;99.90
25933;DHT22;13731;51.166;4.474;2022-09-30T15:04:16;20.50;99.90
25933;DHT22;13731;51.166;4.474;2022-09-30T15:06:48;20.40;99.90
25933;DHT22;13731;51.166;4.474;2022-09-30T15:09:22;19.80;99.90
25933;DHT22;13731;51.166;4.474;2022-09-30T15:11:49;19.20;99.90
25933;DHT22;13731;51.166;4.474;2022-09-30T15:14:21;19.10;1.00
25933;DHT22;13731;51.166;4.474;2022-09-30T15:16:55;19.60;1.00
25933;DHT22;13731;51.166;4.474;2022-09-30T15:19:22;20.50;99.90
25933;DHT22;13731;51.166;4.474;2022-09-30T15:21:51;20.60;99.90
25933;DHT22;13731;51.166;4.474;2022-09-30T15:24:19;20.80;99.90
25933;DHT22;13731;51.166;4.474;2022-09-30T15:26:47;19.90;99.90
25933;DHT22;13731;51.166;4.474;2022-09-30T15:29:15;19.30;99.90
25933;DHT22;13731;51.166;4.474;2022-09-30T15:31:59;18.50;1.00
25933;DHT22;13731;51.166;4.474;2022-09-30T15:34:28;18.10;99.90
25933;DHT22;13731;51.166;4.474;2022-09-30T15:36:59;17.90;99.90
25933;DHT22;13731;51.166;4.474;2022-09-30T15:39:33;17.50;99.90
25933;DHT22;13731;51.166;4.474;2022-09-30T15:42:39;17.40;1.00
25933;DHT22;13731;51.166;4.474;2022-09-30T15:45:30;17.50;1.00
25933;DHT22;13731;51.166;4.474;2022-09-30T15:58:57;17.60;83.70
25933;DHT22;13731;51.166;4.474;2022-09-30T16:01:44;17.50;1.00
25933;DHT22;13731;51.166;4.474;2022-09-30T16:09:13;17.10;65.40
25933;DHT22;13731;51.166;4.474;2022-09-30T16:11:47;17.00;99.90
25933;DHT22;13731;51.166;4.474;2022-09-30T16:14:42;16.90;99.90
25933;DHT22;13731;51.166;4.474;2022-09-30T16:17:20;16.80;99.90
25933;DHT22;13731;51.166;4.474;2022-09-30T16:20:36;16.70;99.90
25933;DHT22;13731;51.166;4.474;2022-09-30T16:25:29;16.50;1.00
25933;DHT22;13731;51.166;4.474;2022-09-30T16:30:33;16.30;1.00
25933;DHT22;13731;51.166;4.474;2022-09-30T16:33:03;16.20;1.00
25933;DHT22;13731;51.166;4.474;2022-09-30T16:35:31;16.10;48.80
25933;DHT22;13731;51.166;4.474;2022-09-30T16:38:03;16.00;99.90
25933;DHT22;13731;51.166;4.474;2022-09-30T16:40:31;16.00;99.90
25933;DHT22;13731;51.166;4.474;2022-09-30T16:42:57;15.90;99.90
25933;DHT22;13731;51.166;4.474;2022-09-30T16:45:27;15.80;1.00
25933;DHT22;13731;51.166;4.474;2022-09-30T16:47:54;15.70;3.00
25933;DHT22;13731;51.166;4.474;2022-09-30T16:50:45;15.70;17.40
25933;DHT22;13731;51.166;4.474;2022-09-30T16:53:13;15.50;99.90
25933;DHT22;13731;51.166;4.474;2022-09-30T16:55:39;15.40;99.90
25933;DHT22;13731;51.166;4.474;2022-09-30T16:58:09;15.40;1.00
25933;DHT22;13731;51.166;4.474;2022-09-30T17:00:37;15.40;1.00
25933;DHT22;13731;51.166;4.474;2022-09-30T17:03:06;15.30;1.00
25933;DHT22;13731;51.166;4.474;2022-09-30T17:05:32;15.30;98.40
25933;DHT22;13731;51.166;4.474;2022-09-30T17:07:58;15.20;99.90
25933;DHT22;13731;51.166;4.474;2022-09-30T17:10:27;15.20;99.90
25933;DHT22;13731;51.166;4.474;2022-09-30T17:12:58;15.10;99.90
25933;DHT22;13731;51.166;4.474;2022-09-30T17:15:26;15.10;99.90
25933;DHT22;13731;51.166;4.474;2022-09-30T17:17:53;15.10;1.00
25933;DHT22;13731;51.166;4.474;2022-09-30T17:20:20;15.00;99.90
25933;DHT22;13731;51.166;4.474;2022-09-30T17:22:46;15.00;1.00
25933;DHT22;13731;51.166;4.474;2022-09-30T17:25:13;14.90;1.00
25933;DHT22;13731;51.166;4.474;2022-09-30T17:27:39;14.90;18.60
25933;DHT22;13731;51.166;4.474;2022-09-30T17:30:06;14.80;99.90
25933;DHT22;13731;51.166;4.474;2022-09-30T17:32:34;14.70;99.90
25933;DHT22;13731;51.166;4.474;2022-09-30T17:35:00;14.70;1.00
25933;DHT22;13731;51.166;4.474;2022-09-30T17:37:29;14.60;1.00
25933;DHT22;13731;51.166;4.474;2022-09-30T17:39:55;14.50;1.00
25933;DHT22;13731;51.166;4.474;2022-09-30T17:42:21;14.50;1.00
25933;DHT22;13731;51.166;4.474;2022-09-30T17:45:05;14.50;1.00
25933;DHT22;13731;51.166;4.474;2022-09-30T17:47:31;14.50;1.00
25933;DHT22;13731;51.166;4.474;2022-09-30T17:49:57;14.50;1.00
25933;DHT22;13731;51.166;4.474;2022-09-30T17:52:24;14.50;1.00
25933;DHT22;13731;51.166;4.474;2022-09-30T17:54:51;14.50;1.00
25933;DHT22;13731;51.166;4.474;2022-09-30T17:57:18;14.50;51.80
25933;DHT22;13731;51.166;4.474;2022-09-30T17:59:45;14.50;43.50
25933;DHT22;13731;51.166;4.474;2022-09-30T18:02:12;14.50;22.10
25933;DHT22;13731;51.166;4.474;2022-09-30T18:04:40;14.50;99.90
25933;DHT22;13731;51.166;4.474;2022-09-30T18:07:06;14.50;26.00
25933;DHT22;13731;51.166;4.474;2022-09-30T18:09:35;14.50;1.00
25933;DHT22;13731;51.166;4.474;2022-09-30T18:12:05;14.40;99.90
25933;DHT22;13731;51.166;4.474;2022-09-30T18:14:40;14.40;80.30
25933;DHT22;13731;51.166;4.474;2022-09-30T18:17:08;14.40;25.70
25933;DHT22;13731;51.166;4.474;2022-09-30T18:19:34;14.40;1.00
25933;DHT22;13731;51.166;4.474;2022-09-30T18:22:01;14.40;62.10
25933;DHT22;13731;51.166;4.474;2022-09-30T18:24:27;14.40;11.50
25933;DHT22;13731;51.166;4.474;2022-09-30T18:27:11;14.40;1.00
25933;DHT22;13731;51.166;4.474;2022-09-30T18:29:37;14.40;1.00
25933;DHT22;13731;51.166;4.474;2022-09-30T18:32:04;14.40;1.00
25933;DHT22;13731;51.166;4.474;2022-09-30T18:34:30;14.50;1.00
25933;DHT22;13731;51.166;4.474;2022-09-30T18:36:56;14.50;1.00
25933;DHT22;13731;51.166;4.474;2022-09-30T18:39:33;14.40;99.90
25933;DHT22;13731;51.166;4.474;2022-09-30T18:42:00;14.40;1.00
25933;DHT22;13731;51.166;4.474;2022-09-30T18:44:25;14.40;99.90
25933;DHT22;13731;51.166;4.474;2022-09-30T18:46:52;14.40;79.00
25933;DHT22;13731;51.166;4.474;2022-09-30T18:49:20;14.40;99.90
25933;DHT22;13731;51.166;4.474;2022-09-30T18:51:47;14.40;33.70
25933;DHT22;13731;51.166;4.474;2022-09-30T18:54:13;14.40;11.10
25933;DHT22;13731;51.166;4.474;2022-09-30T18:56:42;14.40;1.00
25933;DHT22;13731;51.166;4.474;2022-09-30T18:59:10;14.40;2.60
25933;DHT22;13731;51.166;4.474;2022-09-30T19:01:41;14.40;1.00
25933;DHT22;13731;51.166;4.474;2022-09-30T19:04:09;14.30;1.00
25933;DHT22;13731;51.166;4.474;2022-09-30T19:06:35;14.30;99.00
25933;DHT22;13731;51.166;4.474;2022-09-30T19:09:02;14.40;46.40
25933;DHT22;13731;51.166;4.474;2022-09-30T19:11:28;14.30;99.90
25933;DHT22;13731;51.166;4.474;2022-09-30T19:13:55;14.40;99.90
25933;DHT22;13731;51.166;4.474;2022-09-30T19:16:27;14.30;11.30
25933;DHT22;13731;51.166;4.474;2022-09-30T19:18:54;14.30;53.90
25933;DHT22;13731;51.166;4.474;2022-09-30T19:21:26;14.40;1.00
25933;DHT22;13731;51.166;4.474;2022-09-30T19:23:53;14.40;99.90
25933;DHT22;13731;51.166;4.474;2022-09-30T19:26:24;14.30;99.90
25933;DHT22;13731;51.166;4.474;2022-09-30T19:28:52;14.30;58.40
25933;DHT22;13731;51.166;4.474;2022-09-30T19:31:18;14.30;99.90
25933;DHT22;13731;51.166;4.474;2022-09-30T19:33:50;14.30;99.90
25933;DHT22;13731;51.166;4.474;2022-09-30T19:36:17;14.30;99.90
25933;DHT22;13731;51.166;4.474;2022-09-30T19:38:45;14.40;62.00